createdAt,value
2023-04-16T00:04:54.293Z,10.77
2023-04-16T00:09:57.324Z,11.13
2023-04-16T00:15:00.578Z,9.77
2023-04-16T00:20:05.747Z,9.80
2023-04-16T00:25:09.397Z,9.63
2023-04-16T00:30:12.823Z,9.80
2023-04-16T00:35:17.413Z,9.70
2023-04-16T00:40:20.493Z,10.10
2023-04-16T00:45:23.554Z,10.40
2023-04-16T00:50:28.000Z,11.67
2023-04-16T00:55:31.163Z,9.97
2023-04-16T01:00:34.609Z,10.03
2023-04-16T01:05:39.498Z,10.57
2023-04-16T01:10:42.707Z,10.47
2023-04-16T01:15:45.853Z,10.70
2023-04-16T01:20:50.833Z,10.87
2023-04-16T01:25:53.983Z,11.17
2023-04-16T01:30:57.200Z,11.43
2023-04-16T01:36:01.695Z,10.77
2023-04-16T01:41:05.128Z,10.53
2023-04-16T01:46:15.182Z,10.80
2023-04-16T01:51:19.638Z,11.83
2023-04-16T01:56:22.736Z,10.87
2023-04-16T02:01:25.923Z,11.47
2023-04-16T02:06:31.541Z,10.80
2023-04-16T02:11:34.588Z,11.03
2023-04-16T02:16:37.817Z,11.23
2023-04-16T02:21:42.666Z,10.90
2023-04-16T02:26:46.351Z,10.90
2023-04-16T02:31:50.207Z,11.10
2023-04-16T02:36:55.369Z,11.20
2023-04-16T02:41:59.727Z,12.23
2023-04-16T02:47:03.156Z,11.97
2023-04-16T02:52:07.721Z,12.50
2023-04-16T02:57:11.092Z,13.27
2023-04-16T03:02:14.454Z,13.53
2023-04-16T03:07:18.861Z,14.30
2023-04-16T03:12:21.924Z,13.50
2023-04-16T03:17:25.277Z,14.00
2023-04-16T03:22:29.670Z,14.00
2023-04-16T03:27:33.185Z,13.93
2023-04-16T03:32:36.216Z,13.80
2023-04-16T03:37:40.723Z,12.70
2023-04-16T03:42:43.754Z,13.07
2023-04-16T03:47:48.576Z,12.93
2023-04-16T03:52:53.043Z,13.03
2023-04-16T03:57:56.192Z,13.33
2023-04-16T04:02:59.744Z,14.30
2023-04-16T04:08:04.758Z,13.87
2023-04-16T04:13:08.567Z,14.53
2023-04-16T04:18:11.988Z,14.23
2023-04-16T04:23:16.478Z,12.57
2023-04-16T04:28:19.849Z,13.33
2023-04-16T04:33:23.548Z,12.33
2023-04-16T04:38:28.392Z,11.53
2023-04-16T04:43:31.754Z,11.60
2023-04-16T04:48:34.880Z,10.87
2023-04-16T04:53:39.778Z,11.07
2023-04-16T04:58:43.620Z,11.17
2023-04-16T05:03:46.740Z,11.47
2023-04-16T05:08:51.330Z,11.83
2023-04-16T05:13:54.365Z,13.27
2023-04-16T05:18:57.934Z,13.33
2023-04-16T05:24:02.337Z,12.80
2023-04-16T05:29:05.423Z,12.87
2023-04-16T05:34:08.478Z,12.87
2023-04-16T05:39:12.842Z,12.57
2023-04-16T05:44:16.270Z,12.50
2023-04-16T05:49:19.915Z,11.93
2023-04-16T05:54:24.399Z,12.43
2023-04-16T05:59:27.561Z,12.87
2023-04-16T06:04:30.979Z,11.10
2023-04-16T06:09:37.245Z,11.57
2023-04-16T06:14:40.393Z,12.57
2023-04-16T06:19:43.517Z,12.27
2023-04-16T06:24:48.021Z,11.60
2023-04-16T06:29:51.314Z,13.20
2023-04-16T06:34:54.514Z,12.87
2023-04-16T06:39:59.009Z,14.20
2023-04-16T06:45:02.566Z,13.50
2023-04-16T06:50:06.355Z,13.63
2023-04-16T06:55:11.198Z,13.87
2023-04-16T07:00:14.619Z,14.53
2023-04-16T07:05:17.876Z,14.00
2023-04-16T07:10:22.283Z,14.07
2023-04-16T07:15:25.580Z,14.50
2023-04-16T07:20:28.807Z,14.27
2023-04-16T07:25:33.178Z,13.70
2023-04-16T07:30:36.272Z,13.10
2023-04-16T07:35:39.326Z,14.30
2023-04-16T07:40:43.870Z,12.90
2023-04-16T07:45:47.095Z,13.13
2023-04-16T07:50:50.322Z,12.60
2023-04-16T07:55:54.840Z,11.83
2023-04-16T08:00:58.062Z,13.33
2023-04-16T08:06:01.691Z,13.27
2023-04-16T08:11:06.392Z,13.07
2023-04-16T08:16:09.605Z,13.23
2023-04-16T08:21:12.784Z,12.90
2023-04-16T08:26:17.479Z,14.10
2023-04-16T08:31:20.706Z,12.80
2023-04-16T08:36:23.854Z,13.30
2023-04-16T08:41:31.394Z,13.67
2023-04-16T08:46:38.427Z,12.53
2023-04-16T08:51:44.625Z,12.80
2023-04-16T08:56:49.882Z,11.97
2023-04-16T09:01:54.008Z,12.40
2023-04-16T09:06:57.800Z,11.80
2023-04-16T09:12:02.233Z,12.23
2023-04-16T09:17:07.478Z,12.33
2023-04-16T09:22:10.653Z,12.23
2023-04-16T09:27:15.351Z,12.57
2023-04-16T09:32:18.582Z,11.63
2023-04-16T09:37:22.314Z,12.37
2023-04-16T09:42:29.252Z,13.17
2023-04-16T09:47:42.978Z,12.00
2023-04-16T09:52:50.356Z,13.17
2023-04-16T09:58:01.940Z,12.57
2023-04-16T10:03:06.635Z,13.23
2023-04-16T10:08:14.247Z,13.50
2023-04-16T10:13:19.168Z,13.70
2023-04-16T10:18:23.069Z,13.57
2023-04-16T10:23:26.958Z,12.27
2023-04-16T10:28:31.460Z,13.57
2023-04-16T10:33:36.758Z,14.50
2023-04-16T10:38:41.734Z,13.27
2023-04-16T10:43:47.472Z,15.03
2023-04-16T10:54:42.335Z,16.23
2023-04-16T10:59:47.223Z,14.40
2023-04-16T11:04:50.738Z,14.97
2023-04-16T11:09:59.577Z,15.27
2023-04-16T11:15:06.855Z,15.73
2023-04-16T11:20:18.855Z,14.13
2023-04-16T11:25:25.825Z,16.13
2023-04-16T11:30:31.861Z,17.37
2023-04-16T11:35:35.257Z,20.63
2023-04-16T11:40:38.263Z,20.17
2023-04-16T11:45:57.272Z,21.80
2023-04-16T11:51:00.785Z,21.73
2023-04-16T11:56:05.099Z,17.40
2023-04-16T12:01:10.993Z,23.83
2023-04-16T12:06:14.020Z,21.77
2023-04-16T12:11:17.032Z,24.00
2023-04-16T12:16:21.706Z,25.13
2023-04-16T12:28:04.030Z,24.60
2023-04-16T12:33:19.530Z,21.43
2023-04-16T12:38:24.486Z,22.60
2023-04-16T12:43:28.500Z,20.83
2023-04-16T12:48:33.837Z,20.43
2023-04-16T12:53:36.970Z,18.90
2023-04-16T12:58:40.044Z,16.77
2023-04-16T13:03:44.655Z,15.77
2023-04-16T13:08:47.805Z,15.23
2023-04-16T13:13:50.843Z,13.80
2023-04-16T13:18:55.438Z,13.73
2023-04-16T13:23:58.578Z,15.27
2023-04-16T13:41:10.886Z,13.17
2023-04-16T13:46:13.926Z,12.40
2023-04-16T13:51:16.972Z,11.97
2023-04-16T13:56:21.362Z,11.47
2023-04-16T14:01:24.608Z,12.37
2023-04-16T14:06:27.891Z,11.50
2023-04-16T14:11:32.471Z,12.00
2023-04-16T14:16:35.725Z,11.60
2023-04-16T14:21:38.799Z,10.80
2023-04-16T14:26:43.921Z,11.70
2023-04-16T14:31:47.068Z,10.73
2023-04-16T14:36:51.848Z,9.97
2023-04-16T14:41:56.292Z,10.27
2023-04-16T14:46:59.552Z,11.00
2023-04-16T14:52:05.136Z,11.13
2023-04-16T14:57:09.491Z,11.07
2023-04-16T15:02:12.711Z,10.80
2023-04-16T15:07:16.117Z,10.17
2023-04-16T15:12:20.445Z,10.23
2023-04-16T15:17:23.874Z,10.40
2023-04-16T15:22:27.284Z,10.10
2023-04-16T15:27:31.675Z,11.27
2023-04-16T15:32:34.760Z,12.60
2023-04-16T15:37:38.738Z,12.27
2023-04-16T15:42:44.110Z,13.40
2023-04-16T15:47:51.076Z,13.03
2023-04-16T15:52:54.415Z,13.80
2023-04-16T15:57:58.778Z,13.57
2023-04-16T16:03:02.116Z,12.80
2023-04-16T16:08:06.197Z,12.47
2023-04-16T16:13:13.114Z,12.17
2023-04-16T16:18:16.485Z,12.80
2023-04-16T16:23:19.609Z,14.20
2023-04-16T16:28:25.082Z,14.03
2023-04-16T16:33:28.934Z,13.67
2023-04-16T16:38:32.005Z,12.73
2023-04-16T16:43:37.099Z,13.80
2023-04-16T16:48:40.114Z,12.93
2023-04-16T16:53:43.124Z,13.30
2023-04-16T16:58:47.766Z,13.47
2023-04-16T17:03:51.100Z,13.40
2023-04-16T17:08:54.303Z,13.40
2023-04-16T17:13:58.723Z,13.03
2023-04-16T17:19:01.762Z,12.80
2023-04-16T17:24:05.092Z,11.70
2023-04-16T17:29:09.568Z,12.73
2023-04-16T17:34:12.760Z,11.93
2023-04-16T17:39:16.287Z,13.27
2023-04-16T17:44:20.667Z,15.80
2023-04-16T17:49:23.736Z,13.87
2023-04-16T17:54:26.965Z,14.73
2023-04-16T17:59:31.408Z,14.00
2023-04-16T18:04:34.740Z,18.20
2023-04-16T18:09:38.128Z,16.87
2023-04-16T18:14:44.558Z,16.40
2023-04-16T18:19:47.669Z,17.17
2023-04-16T18:24:50.791Z,18.77
2023-04-16T18:29:55.709Z,17.77
2023-04-16T18:34:59.174Z,20.27
2023-04-16T18:40:02.333Z,20.40
2023-04-16T18:45:12.697Z,19.17
2023-04-16T18:50:16.987Z,20.07
2023-04-16T18:55:20.146Z,24.60
2023-04-16T19:00:24.577Z,23.00
2023-04-16T19:05:27.823Z,23.87
2023-04-16T19:10:30.914Z,19.17
2023-04-16T19:15:35.606Z,22.80
2023-04-16T19:20:39.527Z,23.40
2023-04-16T19:25:42.556Z,24.87
2023-04-16T19:30:47.075Z,21.47
2023-04-16T19:35:50.095Z,21.50
2023-04-16T19:40:53.127Z,19.30
2023-04-16T19:45:57.506Z,23.17
2023-04-16T19:51:02.808Z,23.60
2023-04-16T19:56:06.543Z,22.77
2023-04-16T20:01:11.438Z,23.27
2023-04-16T20:06:14.477Z,22.70
2023-04-16T20:11:18.145Z,24.00
2023-04-16T20:16:23.860Z,21.10
2023-04-16T20:21:27.778Z,21.97
2023-04-16T20:26:33.637Z,22.50
2023-04-16T20:31:38.055Z,21.57
2023-04-16T20:36:41.298Z,24.40
2023-04-16T20:41:45.433Z,23.73
2023-04-16T20:46:50.976Z,25.40
2023-04-16T20:51:54.394Z,24.30
2023-04-16T20:56:58.154Z,26.33
2023-04-16T21:02:02.643Z,27.87
2023-04-16T21:07:05.798Z,24.07
2023-04-16T21:12:08.906Z,26.10
2023-04-16T21:17:13.360Z,28.63
2023-04-16T21:22:16.689Z,30.53
2023-04-16T21:27:19.706Z,28.93
2023-04-16T21:32:24.539Z,28.67
2023-04-16T21:37:27.937Z,29.57
2023-04-16T21:42:31.349Z,32.43
2023-04-16T21:47:35.991Z,30.40
2023-04-16T21:52:40.748Z,32.17
2023-04-16T21:57:44.049Z,33.63
2023-04-16T22:02:48.477Z,33.07
2023-04-16T22:07:52.096Z,32.73
2023-04-16T22:12:55.144Z,34.07
2023-04-16T22:18:00.448Z,33.60
2023-04-16T22:23:03.525Z,37.00
2023-04-16T22:28:06.668Z,36.20
2023-04-16T22:33:11.144Z,34.33
2023-04-16T22:38:14.269Z,35.13
2023-04-16T22:43:17.868Z,38.10
2023-04-16T22:48:22.494Z,36.97
2023-04-16T22:53:25.500Z,38.43
2023-04-16T22:58:28.797Z,40.63
2023-04-16T23:03:33.217Z,39.13
2023-04-16T23:08:36.260Z,39.43
2023-04-16T23:13:39.322Z,40.90
2023-04-16T23:18:43.674Z,42.23
2023-04-16T23:23:47.000Z,38.67
2023-04-16T23:28:50.177Z,41.20
2023-04-16T23:33:54.741Z,42.13
2023-04-16T23:38:57.758Z,40.37
2023-04-16T23:44:00.823Z,43.67
2023-04-16T23:49:05.746Z,45.17
2023-04-16T23:54:08.804Z,46.30
2023-04-16T23:59:12.054Z,45.27
